Flight Track Log - Related Links

Times and Time Zones

All times are in EDT time to prevent confusion due to time zone crossing. See the JUS327 flight status page for this flight to view local times or setup timezone preferences in your user account.

Time Position Orientation Groundspeed Altitude Reporting Facility
EDT Latitude Longitude Course Direction KTS MPH feet Rate Location/Type
Thu 04:40:36 PM 35.0167 -89.9667 209° Southwest 166 191 900  Level KMEM
Thu 04:41:36 PM 34.9667 -90.0000 209° Southwest 207 238 2,800 1,888 Climbing KMEM
Thu 04:43:53 PM 34.8842 -90.1342 219° Southwest 238 274 7,100 1,827 Climbing Memphis Center
Thu 04:44:53 PM 34.8694 -90.2078 256° West 243 280 8,800 1,800 Climbing Memphis Center
Thu 04:45:53 PM 34.8614 -90.2964 264° West 258 297 10,700 1,350 Climbing Memphis Center
Thu 04:46:53 PM 34.8633 -90.3925 271° West 277 319 11,500 1,050 Climbing Memphis Center
Thu 04:47:53 PM 34.8758 -90.4964 278° West 303 349 12,800 1,700 Climbing Memphis Center
Thu 04:48:53 PM 34.8986 -90.6053 284° West 326 375 14,900 1,800 Climbing Memphis Center
Thu 04:49:53 PM 34.9256 -90.7142 287° West 333 383 16,400 1,250 Climbing Memphis Center
Thu 04:50:53 PM 34.9503 -90.8308 285° West 338 389 17,400 1,250 Climbing Memphis Center
Thu 04:51:53 PM 34.9725 -90.9450 283° West 338 389 18,900 1,200 Climbing Memphis Center
Thu 04:52:53 PM 34.9889 -91.0542 280° West 338 389 19,800 950 Climbing Memphis Center
Thu 04:53:53 PM 34.9569 -91.1578 249° West 318 366 20,800 1,050 Climbing Memphis Center
Thu 04:54:53 PM 34.9206 -91.2586 246° West 318 366 21,900 850 Climbing Memphis Center
Thu 04:55:53 PM 34.8864 -91.3672 249° West 337 388 22,500 550 Climbing Memphis Center
Thu 04:56:53 PM 34.8522 -91.4781 249° West 353 406 23,000 750 Climbing Memphis Center
Thu 04:57:53 PM 34.8178 -91.5942 250° West 353 406 24,000 750 Climbing Memphis Center
Thu 04:58:53 PM 34.7831 -91.7047 249° West 353 406 24,500 600 Climbing Memphis Center
Thu 04:59:53 PM 34.7486 -91.8131 249° West 353 406 25,200 750 Climbing Memphis Center
Thu 05:00:53 PM 34.7117 -91.9236 248° West 353 406 26,000 800 Climbing Memphis Center
Thu 05:01:53 PM 34.6769 -92.0364 250° West 353 406 26,800 750 Climbing Memphis Center
Thu 05:02:53 PM 34.6442 -92.1469 250° West 353 406 27,500 700 Climbing Memphis Center
Thu 05:03:53 PM 34.6111 -92.2547 250° West 347 399 28,200 750 Climbing Memphis Center
Thu 05:04:53 PM 34.5739 -92.3650 248° West 352 405 29,000 750 Climbing Memphis Center
Thu 05:05:53 PM 34.5386 -92.4775 249° West 352 405 29,700 500 Climbing Memphis Center
Thu 05:06:53 PM 34.4992 -92.5900 247° West 352 405 30,000 150 Climbing Memphis Center
Thu 05:07:53 PM 34.4636 -92.7075 250° West 363 418 30,000  Level Memphis Center
Thu 05:08:53 PM 34.4300 -92.8247 251° West 371 427 30,000  Level Memphis Center
Thu 05:09:53 PM 34.3944 -92.9369 249° West 371 427 30,000  Level Memphis Center
Thu 05:10:53 PM 34.3589 -93.0467 249° West 366 421 30,000  Level Memphis Center
Thu 05:11:53 PM 34.3228 -93.1589 249° West 361 415 30,000  Level Memphis Center
Thu 05:12:53 PM 34.2911 -93.2708 251° West 366 421 30,000  Level Memphis Center
Thu 05:14:39 PM 34.2300 -93.4572 248° West 345 397 30,000  Level Fort Worth Center
Thu 05:15:39 PM 34.1958 -93.5669 249° West 345 397 30,000  Level Fort Worth Center
Thu 05:16:39 PM 34.1617 -93.6764 249° West 340 391 30,000  Level Fort Worth Center
Thu 05:17:39 PM 34.1250 -93.7806 247° West 340 391 30,000  Level Fort Worth Center
Thu 05:18:39 PM 34.0925 -93.8850 249° West 340 391 30,000 -300 Level Fort Worth Center
Thu 05:19:39 PM 34.0578 -93.9917 249° West 340 391 29,400 -1,000 Descending Fort Worth Center
Thu 05:20:39 PM 34.0253 -94.0981 250° West 340 391 28,000 -1,500 Descending Fort Worth Center
Thu 05:21:39 PM 33.9864 -94.2122 248° West 351 404 26,400 -1,600 Descending Fort Worth Center
Thu 05:22:39 PM 33.9475 -94.3264 248° West 364 419 24,800 -1,045 Descending Fort Worth Center
Thu 05:23:51 PM 33.9106 -94.4353 248° West 364 419 24,100 -409 Descending Fort Worth Center
Thu 05:24:51 PM 33.8656 -94.5644 247° West 359 413 23,900 -50 Descending Fort Worth Center
Thu 05:25:51 PM 33.8283 -94.6706 247° West 353 406 24,000 50 Climbing Fort Worth Center
Thu 05:26:51 PM 33.7931 -94.7817 249° West 353 406 24,000 -50 Level Fort Worth Center
Thu 05:27:51 PM 33.7578 -94.8903 249° West 358 412 23,900 -50 Descending Fort Worth Center
Thu 05:28:51 PM 33.7222 -94.9936 248° West 353 406 23,900  Level Fort Worth Center
Thu 05:29:51 PM 33.6844 -95.0944 246° West 342 394 23,900 50 Level Fort Worth Center
Thu 05:30:51 PM 33.6508 -95.1950 248° West 336 387 24,000 50 Climbing Fort Worth Center
Thu 05:31:51 PM 33.6172 -95.2983 249° West 336 387 24,000 -250 Level Fort Worth Center
Thu 05:32:51 PM 33.5792 -95.3964 245° Southwest 336 387 23,500 -1,050 Descending Fort Worth Center
Thu 05:33:51 PM 33.5453 -95.5044 249° West 336 387 21,900 -1,650 Descending Fort Worth Center
Thu 05:34:51 PM 33.5094 -95.6122 248° West 341 392 20,200 -1,600 Descending Fort Worth Center
Thu 05:35:51 PM 33.4753 -95.7200 249° West 341 392 18,700 -1,600 Descending Fort Worth Center
Thu 05:36:51 PM 33.4433 -95.8178 249° West 328 377 17,000 -1,650 Descending Fort Worth Center
Thu 05:37:51 PM 33.4111 -95.9103 247° West 306 352 15,400 -1,700 Descending Fort Worth Center
Thu 05:38:51 PM 33.3744 -95.9956 243° Southwest 293 337 13,600 -1,600 Descending Fort Worth Center
Thu 05:39:51 PM 33.3419 -96.0831 246° West 293 337 12,200 -1,300 Descending Fort Worth Center
Thu 05:40:51 PM 33.3117 -96.1731 248° West 293 337 11,000 -1,100 Descending Fort Worth Center
Thu 05:41:51 PM 33.2811 -96.2606 247° West 293 337 10,000 -500 Descending Fort Worth Center
Thu 05:42:51 PM 33.2547 -96.3378 248° West 272 313 10,000 -50 Level Fort Worth Center
Thu 05:43:51 PM 33.2114 -96.4006 230° Southwest 252 290 9,900 -650 Descending Fort Worth Center
Thu 05:44:51 PM 33.1719 -96.4456 224° Southwest 233 268 8,700 -1,550 Descending Fort Worth Center
Thu 05:45:51 PM 33.0908 -96.4664 192° South 253 291 6,800 -1,750 Descending Fort Worth Center
Thu 05:46:51 PM 33.0178 -96.4917 196° South 291 335 5,200 -950 Descending Fort Worth Center
Thu 05:47:51 PM 32.9431 -96.5372 207° Southwest 290 334 4,900 -600 Descending Fort Worth Center
Thu 05:48:51 PM 32.8892 -96.5797 214° Southwest 274 315 4,000 -500 Descending Fort Worth Center
Thu 05:49:51 PM 32.8164 -96.6175 204° Southwest 263 303 3,900 -100 Descending Fort Worth Center
Thu 05:50:51 PM 32.7642 -96.6428 202° Southwest 234 269 3,800 -524 Descending Fort Worth Center
Thu 05:51:34 PM 32.7333 -96.6667 213° Southwest 210 242 3,000 -750 Descending Dallas / Fort Worth TRACON
Thu 05:52:35 PM 32.7500 -96.7333 287° West 159 183 2,500 -443 Descending Dallas / Fort Worth TRACON
Thu 05:53:36 PM 32.7667 -96.7667 301° West 147 169 2,100 -397 Descending Dallas / Fort Worth TRACON
Thu 05:54:36 PM 32.8000 -96.8000 320° Northwest 130 150 1,700 -645 Descending Dallas / Fort Worth TRACON
Thu 05:55:37 PM 32.8333 -96.8167 337° Northwest 131 151 800 -885 Descending Dallas / Fort Worth TRACON
Thu 05:57:00 PM 32.8333 -96.8500 270° West  Level FlightAware Approximate
Thu 06:04:00 PM 32.8471 -96.8518 270° West  Level Estimated

Login

Don't have an account? Register now (free) for customized features, flight alerts, and more!